NCAR-RAP Real-Time Weather Data

Output produced by METARs form (14 October 2019  22:52 UTC)
found at http://weather.rap.ucar.edu/surface/
 
KBIL 142153Z 01017KT 10SM SCT110 12/M01 A2996 RMK AO2 PK WND 33032/2059 SLP148 T01221011 $